Time;durP1;ratioP1;P1;durP2;ratioP2;P2;SDS_P1;SDS_P2;PMS_P1;PMS_P2;Temp;Humidity;BMP_temperature;BMP_pressure;BME280_temperature;BME280_humidity;BME280_pressure;Samples;Min_cycle;Max_cycle;Signal;HPM_P1;HPM_P2
2022/06/28 00:03:00;;;;;;;14.15;8.50;;;14.40;99.90;;;;;;9178695;19;20115;-69
2022/06/28 00:06:07;;;;;;;12.23;8.82;;;14.30;99.90;;;;;;9181292;19;20476;-69
2022/06/28 00:09:11;;;;;;;13.80;9.23;;;14.30;99.90;;;;;;9178813;19;20007;-69
2022/06/28 00:12:15;;;;;;;14.45;9.23;;;14.20;99.90;;;;;;9176143;19;20014;-69
2022/06/28 00:18:37;;;;;;;12.98;9.40;;;14.10;99.90;;;;;;9181923;19;20011;-69
2022/06/28 00:21:43;;;;;;;15.40;10.00;;;14.10;99.90;;;;;;9178342;19;20019;-69
2022/06/28 00:24:47;;;;;;;15.52;9.90;;;13.40;99.90;;;;;;9177623;19;20365;-69
2022/06/28 00:27:56;;;;;;;13.85;9.55;;;14.00;99.90;;;;;;9178289;19;20080;-69
2022/06/28 00:31:00;;;;;;;16.70;9.75;;;14.00;99.90;;;;;;9176374;19;20015;-69
2022/06/28 00:34:05;;;;;;;14.35;9.32;;;15.10;99.90;;;;;;9178011;19;20020;-69
2022/06/28 00:37:12;;;;;;;16.08;9.50;;;14.00;99.90;;;;;;9181615;19;20019;-69
2022/06/28 00:40:15;;;;;;;14.73;9.00;;;14.00;99.90;;;;;;9175819;19;20011;-69
2022/06/28 00:43:22;;;;;;;13.68;9.13;;;13.90;99.90;;;;;;9178564;19;20010;-69
2022/06/28 00:46:26;;;;;;;14.45;9.00;;;13.80;99.90;;;;;;9178792;19;20421;-69
2022/06/28 00:49:31;;;;;;;14.05;8.60;;;15.00;99.90;;;;;;9178532;19;20494;-69
2022/06/28 00:52:37;;;;;;;15.18;9.38;;;13.80;99.90;;;;;;9184080;19;20006;-69
2022/06/28 00:55:42;;;;;;;14.68;9.52;;;13.90;99.90;;;;;;9187881;19;20018;-69
2022/06/28 00:58:46;;;;;;;13.73;9.00;;;13.70;99.90;;;;;;9186929;19;20006;-69
2022/06/28 01:01:51;;;;;;;13.02;9.77;;;14.00;99.90;;;;;;9186728;19;20014;-69
2022/06/28 01:04:55;;;;;;;12.48;8.95;;;13.70;99.90;;;;;;9190653;19;20015;-69
2022/06/28 01:08:03;;;;;;;9.25;7.75;;;13.70;99.90;;;;;;9185874;19;20015;-69
2022/06/28 01:11:18;;;;;;;9.07;7.00;;;14.10;99.90;;;;;;9186794;19;20025;-69
2022/06/28 01:14:22;;;;;;;8.48;6.55;;;13.40;99.90;;;;;;9191323;19;20014;-69
2022/06/28 01:17:26;;;;;;;6.85;6.13;;;13.60;99.90;;;;;;9188711;19;20074;-69
2022/06/28 01:20:30;;;;;;;5.80;4.82;;;13.40;99.90;;;;;;9186701;19;20015;-69
2022/06/28 01:23:37;;;;;;;4.90;4.40;;;13.40;99.90;;;;;;9185684;19;20025;-69
2022/06/28 01:26:42;;;;;;;7.95;5.07;;;13.70;99.90;;;;;;9187967;19;20487;-69
2022/06/28 01:29:45;;;;;;;7.22;5.10;;;13.40;99.90;;;;;;9185294;19;20082;-69
2022/06/28 01:32:50;;;;;;;5.90;5.30;;;13.40;99.90;;;;;;9186290;19;20487;-69
2022/06/28 01:35:56;;;;;;;9.85;5.45;;;13.40;99.90;;;;;;9190212;19;20014;-69
2022/06/28 01:39:03;;;;;;;6.15;5.28;;;13.20;99.90;;;;;;9187265;19;20019;-70
2022/06/28 01:42:07;;;;;;;6.30;5.72;;;13.20;99.90;;;;;;9186016;19;20014;-69
2022/06/28 01:45:12;;;;;;;9.13;6.30;;;13.10;99.90;;;;;;9187291;19;20074;-69
2022/06/28 01:48:18;;;;;;;6.80;5.97;;;13.10;99.90;;;;;;9189248;19;20014;-69
2022/06/28 01:51:22;;;;;;;6.55;5.75;;;13.10;99.90;;;;;;9185979;19;20360;-69
2022/06/28 01:54:28;;;;;;;6.95;6.13;;;13.10;99.90;;;;;;9184881;19;20539;-69
2022/06/28 01:57:32;;;;;;;9.73;6.47;;;13.00;99.90;;;;;;9184182;19;20014;-69
2022/06/28 02:00:36;;;;;;;7.88;6.60;;;13.00;99.90;;;;;;9186817;19;20025;-69
2022/06/28 02:03:41;;;;;;;10.35;7.85;;;13.10;99.90;;;;;;9185099;19;20018;-69
2022/06/28 02:06:44;;;;;;;11.10;8.82;;;12.80;99.90;;;;;;9183892;19;20494;-69
2022/06/28 02:09:51;;;;;;;9.88;8.15;;;13.00;99.90;;;;;;9187553;19;20036;-69
2022/06/28 02:12:56;;;;;;;12.25;9.27;;;13.00;99.90;;;;;;9181118;19;20364;-69
2022/06/28 02:16:02;;;;;;;13.30;8.57;;;13.20;99.90;;;;;;9188562;19;20014;-68
2022/06/28 02:19:07;;;;;;;10.77;8.55;;;13.10;99.90;;;;;;9186400;19;20052;-69
2022/06/28 02:22:11;;;;;;;9.95;8.02;;;13.00;99.90;;;;;;9181832;19;20015;-69
2022/06/28 02:25:17;;;;;;;10.55;7.70;;;13.00;99.90;;;;;;9186626;19;20086;-69
2022/06/28 02:28:21;;;;;;;11.68;9.15;;;12.90;99.90;;;;;;9185096;19;20015;-69
2022/06/28 02:31:25;;;;;;;10.50;8.57;;;12.90;99.90;;;;;;9186396;19;20018;-69
2022/06/28 02:41:04;;;;;;;13.18;8.50;;;12.80;99.90;;;;;;9185674;19;20014;-70
2022/06/28 02:44:08;;;;;;;11.77;8.98;;;12.50;99.90;;;;;;9182157;19;20014;-70
2022/06/28 02:47:12;;;;;;;16.98;9.57;;;12.80;99.90;;;;;;9184452;19;20018;-69
2022/06/28 02:50:16;;;;;;;16.52;9.20;;;12.80;99.90;;;;;;9186708;19;20015;-69
2022/06/28 02:53:20;;;;;;;11.50;9.45;;;12.70;99.90;;;;;;9185909;19;20014;-69
2022/06/28 02:56:26;;;;;;;13.02;9.60;;;12.70;99.90;;;;;;9180136;19;20021;-70
2022/06/28 02:59:30;;;;;;;14.20;9.40;;;12.80;99.90;;;;;;9185181;19;20019;-70
2022/06/28 03:02:34;;;;;;;13.82;9.50;;;12.60;99.90;;;;;;9183785;19;20070;-69
2022/06/28 03:05:39;;;;;;;11.48;9.25;;;12.80;99.90;;;;;;9181205;19;20479;-70
2022/06/28 03:08:43;;;;;;;14.18;9.82;;;12.90;99.90;;;;;;9182904;19;20016;-69
2022/06/28 03:11:49;;;;;;;16.52;9.82;;;12.60;99.90;;;;;;9179464;19;20070;-70
2022/06/28 03:14:53;;;;;;;14.48;10.30;;;12.60;99.90;;;;;;9179676;19;20051;-69
2022/06/28 03:17:57;;;;;;;14.50;10.18;;;12.50;99.90;;;;;;9183297;19;20014;-70
2022/06/28 03:21:03;;;;;;;15.80;10.68;;;12.50;99.90;;;;;;9180302;19;20093;-70
2022/06/28 03:24:07;;;;;;;16.88;10.95;;;12.50;99.90;;;;;;9180259;19;20014;-69
2022/06/28 03:27:14;;;;;;;16.52;11.13;;;12.40;99.90;;;;;;9184185;19;20014;-70
2022/06/28 03:30:18;;;;;;;15.73;10.77;;;12.50;99.90;;;;;;9185654;19;20015;-69
2022/06/28 03:33:22;;;;;;;14.43;10.23;;;12.40;99.90;;;;;;9177664;19;20094;-70
2022/06/28 03:36:26;;;;;;;19.13;11.27;;;;;;;;;;9179818;19;20014;-69
2022/06/28 03:39:29;;;;;;;18.50;10.60;;;12.30;99.90;;;;;;9180098;19;20010;-70
2022/06/28 03:42:36;;;;;;;15.73;10.35;;;12.40;99.90;;;;;;9180637;19;20041;-69
2022/06/28 03:45:40;;;;;;;16.65;10.30;;;12.40;99.90;;;;;;9184311;19;20081;-69
2022/06/28 03:48:44;;;;;;;13.98;10.30;;;12.20;99.90;;;;;;9181806;19;20021;-69
2022/06/28 03:51:48;;;;;;;17.50;10.82;;;12.40;99.90;;;;;;9177969;19;20007;-69
2022/06/28 03:54:52;;;;;;;16.75;10.60;;;12.70;99.90;;;;;;9176543;19;20038;-69
2022/06/28 03:57:58;;;;;;;14.30;10.35;;;12.40;99.90;;;;;;9178803;19;20048;-69
2022/06/28 04:01:02;;;;;;;14.85;10.65;;;12.50;99.90;;;;;;9183171;19;20003;-69
2022/06/28 04:04:06;;;;;;;16.38;10.23;;;12.60;99.90;;;;;;9178726;19;20015;-69
2022/06/28 04:07:11;;;;;;;13.55;9.65;;;12.50;99.90;;;;;;9178697;19;20078;-69
2022/06/28 04:10:15;;;;;;;13.32;10.02;;;12.40;99.90;;;;;;9180603;19;20014;-69
2022/06/28 04:13:21;;;;;;;14.18;10.13;;;12.40;99.90;;;;;;9178804;19;20015;-69
2022/06/28 04:16:27;;;;;;;15.98;10.45;;;12.10;99.90;;;;;;9179079;19;20525;-70
2022/06/28 04:19:30;;;;;;;16.48;10.05;;;12.40;99.90;;;;;;9178333;19;20069;-70
2022/06/28 04:22:34;;;;;;;15.00;9.98;;;12.50;99.90;;;;;;9178237;19;20538;-70
2022/06/28 04:25:40;;;;;;;16.92;10.18;;;12.60;99.90;;;;;;9177085;19;20019;-69
2022/06/28 04:28:46;;;;;;;14.45;9.95;;;12.40;99.90;;;;;;9178322;19;20011;-69
2022/06/28 04:31:50;;;;;;;15.50;10.00;;;12.40;99.90;;;;;;9177313;19;20023;-69
2022/06/28 04:34:54;;;;;;;14.57;9.77;;;12.30;99.90;;;;;;9182020;19;20015;-69
2022/06/28 04:37:58;;;;;;;18.88;10.45;;;;;;;;;;9181176;19;20062;-70
2022/06/28 04:41:03;;;;;;;14.43;10.15;;;12.30;99.90;;;;;;9177581;19;20349;-69
2022/06/28 04:44:09;;;;;;;16.13;10.52;;;12.40;99.90;;;;;;9174072;19;20073;-70
2022/06/28 04:47:14;;;;;;;15.55;10.32;;;12.40;99.90;;;;;;9176967;19;20350;-69
2022/06/28 04:50:18;;;;;;;17.00;10.07;;;12.40;99.90;;;;;;9178284;19;20011;-69
2022/06/28 04:53:21;;;;;;;14.18;10.05;;;12.70;99.90;;;;;;9178177;19;20048;-69
2022/06/28 04:56:26;;;;;;;15.60;10.75;;;12.50;99.90;;;;;;9176996;19;20092;-70
2022/06/28 04:59:32;;;;;;;15.07;9.77;;;12.50;99.90;;;;;;9182213;19;20033;-69
2022/06/28 05:02:36;;;;;;;16.35;10.57;;;12.50;99.90;;;;;;9178650;19;20019;-69
2022/06/28 05:05:41;;;;;;;15.07;10.07;;;12.50;99.90;;;;;;9176949;19;20006;-69
2022/06/28 05:08:46;;;;;;;17.02;10.38;;;12.50;99.90;;;;;;9180017;19;20014;-69
2022/06/28 05:11:50;;;;;;;14.55;9.93;;;;;;;;;;9173961;19;20027;-70
2022/06/28 05:14:56;;;;;;;16.05;10.73;;;12.60;99.90;;;;;;9174267;19;20018;-69
2022/06/28 05:18:00;;;;;;;14.07;9.85;;;12.60;99.90;;;;;;9180012;19;20034;-70
2022/06/28 05:21:04;;;;;;;14.25;9.48;;;12.60;99.90;;;;;;9176033;19;20092;-69
2022/06/28 05:24:08;;;;;;;13.73;10.00;;;12.60;99.90;;;;;;9180953;19;20022;-70
2022/06/28 05:27:12;;;;;;;14.30;9.60;;;12.70;99.90;;;;;;9175856;19;20007;-69
2022/06/28 05:30:19;;;;;;;16.75;9.63;;;12.80;99.90;;;;;;9175703;19;20014;-69
2022/06/28 05:33:23;;;;;;;15.00;9.65;;;12.80;99.90;;;;;;9173882;19;20086;-69
2022/06/28 05:36:27;;;;;;;15.45;9.48;;;13.00;99.90;;;;;;9180586;19;20010;-69
2022/06/28 05:39:32;;;;;;;17.90;10.13;;;13.00;99.90;;;;;;9184766;19;20014;-69
2022/06/28 05:42:36;;;;;;;16.38;9.68;;;13.00;99.90;;;;;;9184103;19;20023;-69
2022/06/28 05:45:42;;;;;;;16.13;9.25;;;13.00;99.90;;;;;;9185974;19;20015;-69
2022/06/28 05:48:46;;;;;;;11.70;8.35;;;13.00;99.90;;;;;;9185752;19;20505;-69
2022/06/28 05:51:50;;;;;;;13.68;8.82;;;13.10;99.90;;;;;;9182729;19;20510;-69
2022/06/28 05:54:54;;;;;;;16.42;9.80;;;13.10;99.90;;;;;;9181808;19;20043;-69
2022/06/28 05:57:58;;;;;;;17.52;8.55;;;13.30;99.90;;;;;;9183651;19;20082;-69
2022/06/28 06:01:05;;;;;;;16.60;9.00;;;13.30;99.90;;;;;;9180214;19;20479;-70
2022/06/28 06:04:09;;;;;;;15.15;8.95;;;13.40;99.90;;;;;;9184793;19;20074;-69
2022/06/28 06:07:13;;;;;;;16.17;8.45;;;13.50;99.90;;;;;;9183310;19;20025;-69
2022/06/28 06:10:18;;;;;;;14.63;8.02;;;13.50;99.90;;;;;;9187150;19;20025;-70
2022/06/28 06:13:22;;;;;;;14.55;8.20;;;13.50;99.90;;;;;;9180880;19;20065;-70
2022/06/28 06:16:28;;;;;;;12.60;7.43;;;13.60;99.90;;;;;;9185390;19;20380;-70
2022/06/28 06:19:32;;;;;;;14.43;7.95;;;13.60;99.90;;;;;;9184993;19;20384;-70
2022/06/28 06:22:36;;;;;;;17.88;7.65;;;13.60;99.90;;;;;;9183169;19;20010;-69
2022/06/28 06:25:40;;;;;;;15.15;7.07;;;13.70;99.90;;;;;;9186980;19;20018;-70
2022/06/28 06:28:44;;;;;;;14.55;8.38;;;13.80;99.90;;;;;;9182241;19;20025;-69
2022/06/28 06:31:51;;;;;;;16.65;8.38;;;13.80;99.90;;;;;;9182204;19;20014;-69
2022/06/28 06:34:54;;;;;;;13.15;8.52;;;13.70;99.90;;;;;;9182187;19;20046;-69
2022/06/28 06:38:00;;;;;;;14.35;8.10;;;13.90;99.90;;;;;;9181716;19;20111;-69
2022/06/28 06:41:04;;;;;;;16.85;8.07;;;13.90;99.90;;;;;;9185431;19;20021;-69
2022/06/28 06:44:08;;;;;;;14.20;8.50;;;14.00;99.90;;;;;;9180074;19;20506;-69
2022/06/28 06:47:14;;;;;;;15.48;8.38;;;14.00;99.90;;;;;;9184096;19;20014;-69
2022/06/28 06:50:20;;;;;;;14.90;7.85;;;14.00;99.90;;;;;;9180895;19;20382;-69
2022/06/28 06:53:24;;;;;;;15.18;8.05;;;14.00;99.90;;;;;;9179329;19;20359;-69
2022/06/28 06:56:27;;;;;;;15.13;8.30;;;14.20;99.90;;;;;;9181776;19;20085;-69
2022/06/28 06:59:32;;;;;;;15.93;8.48;;;14.20;99.90;;;;;;9181305;19;20014;-69
2022/06/28 07:02:41;;;;;;;14.10;7.90;;;14.20;99.90;;;;;;9180729;19;20417;-69
2022/06/28 07:05:45;;;;;;;13.77;7.57;;;14.30;99.90;;;;;;9181678;19;20018;-69
2022/06/28 07:08:49;;;;;;;17.20;7.75;;;14.50;99.90;;;;;;9183672;19;20011;-69
2022/06/28 07:11:54;;;;;;;13.63;6.75;;;14.30;99.90;;;;;;9180338;19;20400;-69
2022/06/28 07:14:58;;;;;;;13.10;7.32;;;14.40;99.90;;;;;;9180986;19;20027;-69
2022/06/28 07:18:04;;;;;;;15.73;6.78;;;14.50;99.90;;;;;;9180191;19;20019;-69
2022/06/28 07:21:08;;;;;;;13.38;7.05;;;14.60;99.90;;;;;;9182466;19;20018;-69
2022/06/28 07:24:13;;;;;;;14.93;7.57;;;14.70;99.90;;;;;;9182790;19;20040;-69
2022/06/28 07:27:17;;;;;;;11.05;6.68;;;14.60;99.90;;;;;;9181163;19;20024;-69
2022/06/28 07:30:21;;;;;;;12.23;7.38;;;15.70;99.90;;;;;;9184203;19;20044;-69
2022/06/28 07:33:27;;;;;;;10.05;6.30;;;15.30;99.90;;;;;;9180111;19;20355;-68
2022/06/28 07:36:31;;;;;;;10.15;6.63;;;14.90;99.90;;;;;;9184965;19;20060;-67
2022/06/28 07:39:35;;;;;;;12.88;6.55;;;15.00;99.90;;;;;;9181486;19;20023;-68
2022/06/28 07:42:39;;;;;;;14.95;6.95;;;15.00;99.90;;;;;;9161656;19;20028;-67
2022/06/28 07:45:44;;;;;;;9.77;6.22;;;15.00;99.90;;;;;;9169548;19;20022;-68
2022/06/28 07:48:50;;;;;;;9.48;6.10;;;15.20;99.90;;;;;;9178169;19;20027;-68
2022/06/28 07:55:19;;;;;;;10.07;5.50;;;16.00;99.90;;;;;;9176597;19;20092;-68
2022/06/28 07:58:23;;;;;;;9.48;4.07;;;15.50;99.90;;;;;;9181629;19;20019;-68
2022/06/28 08:01:27;;;;;;;8.98;5.03;;;15.60;99.90;;;;;;9177239;19;20018;-68
2022/06/28 08:04:36;;;;;;;11.23;3.15;;;15.70;99.90;;;;;;9178624;19;20546;-68
2022/06/28 08:07:40;;;;;;;10.23;3.60;;;15.70;99.90;;;;;;9177256;19;20029;-69
2022/06/28 08:10:45;;;;;;;9.25;4.20;;;15.70;99.90;;;;;;9180125;19;20067;-69
2022/06/28 08:13:52;;;;;;;9.48;3.42;;;15.60;99.90;;;;;;9170731;19;20625;-69
2022/06/28 08:16:56;;;;;;;8.77;3.42;;;15.80;99.90;;;;;;9168911;19;20010;-69
2022/06/28 08:20:03;;;;;;;6.57;2.50;;;15.50;99.90;;;;;;9180043;19;20023;-68
2022/06/28 08:23:07;;;;;;;6.70;2.67;;;15.70;99.90;;;;;;9177216;19;20019;-68
2022/06/28 08:26:11;;;;;;;5.65;2.47;;;15.70;99.90;;;;;;9180777;19;20019;-68
2022/06/28 08:29:16;;;;;;;7.68;3.00;;;15.60;99.90;;;;;;9176623;19;20507;-67
2022/06/28 08:32:20;;;;;;;5.28;2.42;;;15.90;99.90;;;;;;9172112;19;20479;-68
2022/06/28 08:35:27;;;;;;;8.18;2.75;;;16.00;99.90;;;;;;9180257;19;20019;-67
2022/06/28 08:38:31;;;;;;;9.20;2.92;;;16.00;99.90;;;;;;9177458;19;20494;-67
2022/06/28 08:41:36;;;;;;;5.55;2.28;;;16.20;99.90;;;;;;9178497;19;20368;-68
2022/06/28 08:44:40;;;;;;;7.03;2.55;;;16.20;99.90;;;;;;9172882;19;20013;-68
2022/06/28 08:47:47;;;;;;;6.22;2.20;;;16.30;99.90;;;;;;9178037;19;20022;-68
2022/06/28 08:50:56;;;;;;;5.97;2.20;;;16.10;99.90;;;;;;9177822;19;20041;-69
2022/06/28 08:54:02;;;;;;;4.32;2.10;;;16.80;99.90;;;;;;9174995;19;20014;-68
2022/06/28 08:57:08;;;;;;;5.80;2.20;;;16.30;99.90;;;;;;9178725;19;20265;-68
2022/06/28 09:00:15;;;;;;;6.45;2.20;;;16.40;99.90;;;;;;9177737;19;20023;-69
2022/06/28 09:03:19;;;;;;;6.00;2.55;;;16.50;99.90;;;;;;9175533;19;20472;-69
2022/06/28 09:06:27;;;;;;;6.65;2.17;;;16.40;99.90;;;;;;9176569;19;20014;-69
2022/06/28 09:09:31;;;;;;;6.13;2.17;;;16.60;99.90;;;;;;9175662;19;20019;-69
2022/06/28 09:12:35;;;;;;;9.43;2.10;;;16.70;99.90;;;;;;9180397;19;20018;-69
2022/06/28 09:15:54;;;;;;;4.97;1.70;;;16.70;99.90;;;;;;9187143;19;20029;-68
2022/06/28 09:18:58;;;;;;;5.40;2.17;;;16.50;99.90;;;;;;9184297;19;20014;-68
2022/06/28 09:22:06;;;;;;;5.93;2.05;;;16.80;99.90;;;;;;9185377;19;20026;-68
2022/06/28 09:25:13;;;;;;;5.32;1.80;;;16.70;99.90;;;;;;9187598;19;20011;-68
2022/06/28 09:28:27;;;;;;;5.32;2.10;;;17.00;99.90;;;;;;9187329;19;20023;-68
2022/06/28 09:31:32;;;;;;;4.82;1.60;;;17.00;99.90;;;;;;9182548;19;20141;-68
2022/06/28 09:34:36;;;;;;;4.10;1.60;;;17.10;99.90;;;;;;9184162;19;20010;-68
2022/06/28 09:37:45;;;;;;;4.90;1.98;;;17.20;99.90;;;;;;9186527;19;20029;-68
2022/06/28 09:40:54;;;;;;;5.90;1.70;;;17.20;99.90;;;;;;9186234;19;20007;-69
2022/06/28 09:43:59;;;;;;;4.03;1.70;;;17.20;99.90;;;;;;9182753;19;20024;-69
2022/06/28 09:47:03;;;;;;;6.00;1.80;;;17.40;99.90;;;;;;9185350;19;20026;-69
2022/06/28 09:50:08;;;;;;;3.80;1.95;;;17.30;99.90;;;;;;9186692;19;20018;-69
2022/06/28 09:53:17;;;;;;;4.95;1.70;;;17.20;99.90;;;;;;9184248;19;20475;-68
2022/06/28 09:56:23;;;;;;;7.05;1.75;;;17.20;99.90;;;;;;9182618;19;20018;-68
2022/06/28 09:59:28;;;;;;;;;;;17.30;99.90;;;;;;9184921;19;20018;-68
2022/06/28 10:02:32;;;;;;;6.05;1.98;;;17.40;99.90;;;;;;9182144;19;19930;-69
2022/06/28 10:05:36;;;;;;;5.88;2.00;;;17.20;99.90;;;;;;9184994;19;20018;-68
2022/06/28 10:08:43;;;;;;;6.05;1.70;;;17.40;99.90;;;;;;9185510;19;20010;-68
2022/06/28 10:15:04;;;;;;;4.67;1.70;;;17.40;99.90;;;;;;9182686;19;20489;-68
2022/06/28 10:18:14;;;;;;;7.03;2.05;;;17.70;99.90;;;;;;9184883;19;20011;-68
2022/06/28 10:21:18;;;;;;;4.57;1.42;;;17.50;99.90;;;;;;9181684;19;20003;-68
2022/06/28 10:24:24;;;;;;;6.13;1.70;;;17.70;99.90;;;;;;9182276;19;20056;-68
2022/06/28 10:27:29;;;;;;;6.18;2.03;;;17.90;99.90;;;;;;9183394;19;20033;-69
2022/06/28 10:30:33;;;;;;;4.30;1.80;;;17.80;99.90;;;;;;9182958;19;20022;-68
2022/06/28 10:33:43;;;;;;;5.95;1.90;;;17.90;99.90;;;;;;9180330;19;20010;-70
2022/06/28 10:36:49;;;;;;;4.78;2.00;;;17.80;99.90;;;;;;9176411;19;20089;-70
2022/06/28 10:40:34;;;;;;;5.50;1.80;;;18.00;99.90;;;;;;9184211;19;20563;-69
2022/06/28 10:43:48;;;;;;;4.25;1.60;;;18.30;99.90;;;;;;9178465;19;20019;-69
2022/06/28 10:46:57;;;;;;;4.55;1.58;;;17.90;99.90;;;;;;9182681;19;20058;-69
2022/06/28 10:50:06;;;;;;;4.10;1.88;;;18.10;99.90;;;;;;9182953;19;20085;-68
2022/06/28 10:53:10;;;;;;;5.75;1.73;;;18.50;99.90;;;;;;9180151;19;20093;-68
2022/06/28 10:56:21;;;;;;;7.72;1.70;;;19.10;99.90;;;;;;9185299;19;20010;-70
2022/06/28 10:59:38;;;;;;;5.07;1.50;;;18.30;99.90;;;;;;9186872;19;20015;-67
2022/06/28 11:02:49;;;;;;;;;;;18.50;99.90;;;;;;9183036;19;20502;-67
2022/06/28 11:05:55;;;;;;;4.60;1.60;;;18.70;99.90;;;;;;9183350;19;19922;-68
2022/06/28 11:09:04;;;;;;;5.15;1.42;;;18.70;99.90;;;;;;9183774;19;20014;-68
2022/06/28 11:12:13;;;;;;;5.18;1.50;;;18.90;99.90;;;;;;9178732;19;20011;-68
2022/06/28 11:15:36;;;;;;;5.93;1.73;;;19.10;99.90;;;;;;9178056;19;20014;-68
2022/06/28 11:18:41;;;;;;;3.25;1.63;;;19.20;99.90;;;;;;9181479;19;20036;-68
2022/06/28 11:21:46;;;;;;;3.85;1.50;;;19.10;99.90;;;;;;9180143;19;20447;-68
2022/06/28 11:24:50;;;;;;;7.55;2.17;;;18.90;99.90;;;;;;9180251;19;20011;-66
2022/06/28 11:27:58;;;;;;;6.00;1.70;;;19.00;99.90;;;;;;9178374;19;20074;-67
2022/06/28 11:31:02;;;;;;;3.80;1.38;;;19.00;99.90;;;;;;9177108;19;20021;-69
2022/06/28 11:34:06;;;;;;;5.47;1.65;;;19.20;99.90;;;;;;9177188;19;20010;-69
2022/06/28 11:37:10;;;;;;;5.20;1.55;;;19.20;99.30;;;;;;9181083;19;20375;-70
2022/06/28 11:40:15;;;;;;;5.30;1.80;;;19.40;99.80;;;;;;9182638;19;20352;-69
2022/06/28 11:43:25;;;;;;;7.07;1.55;;;19.50;99.90;;;;;;9176520;19;20078;-70
2022/06/28 11:46:30;;;;;;;5.53;1.63;;;19.70;99.90;;;;;;9181186;19;20651;-71
2022/06/28 11:49:35;;;;;;;5.47;1.60;;;19.70;99.90;;;;;;9180487;19;20018;-71
2022/06/28 11:52:51;;;;;;;5.80;1.63;;;19.40;99.40;;;;;;9177021;19;20010;-71
2022/06/28 11:55:56;;;;;;;3.92;1.40;;;19.60;99.60;;;;;;9180049;19;20014;-72
2022/06/28 11:59:03;;;;;;;3.22;1.50;;;19.80;99.90;;;;;;9176816;19;20085;-73
2022/06/28 12:02:07;;;;;;;4.68;1.50;;;19.70;99.10;;;;;;9181576;19;20014;-73
2022/06/28 12:05:12;;;;;;;3.67;1.45;;;20.00;99.30;;;;;;9179903;19;20021;-72
2022/06/28 12:08:16;;;;;;;6.18;1.83;;;20.30;99.20;;;;;;9178945;19;20491;-70
2022/06/28 12:11:31;;;;;;;5.05;1.50;;;20.30;98.20;;;;;;9176689;19;20090;-70
2022/06/28 12:14:39;;;;;;;4.50;1.50;;;20.40;97.70;;;;;;9177633;19;20018;-69
2022/06/28 12:17:48;;;;;;;5.75;1.63;;;20.70;98.30;;;;;;9180060;19;20377;-70
2022/06/28 12:20:58;;;;;;;5.88;1.90;;;20.80;97.60;;;;;;9178203;19;20074;-70
2022/06/28 12:24:03;;;;;;;7.03;1.60;;;20.40;97.20;;;;;;9175519;19;20025;-70
2022/06/28 12:27:07;;;;;;;5.40;1.58;;;20.50;96.90;;;;;;9180741;19;20028;-71
2022/06/28 12:30:14;;;;;;;3.70;1.58;;;20.60;96.10;;;;;;9180425;19;20126;-70
2022/06/28 12:33:18;;;;;;;3.67;1.50;;;20.80;95.70;;;;;;9178291;19;20015;-71
2022/06/28 12:36:22;;;;;;;3.63;1.40;;;21.10;95.70;;;;;;9171687;19;20465;-71
2022/06/28 12:39:26;;;;;;;6.50;1.48;;;21.00;94.30;;;;;;9180586;19;20018;-70
2022/06/28 12:42:30;;;;;;;3.78;1.40;;;20.80;94.30;;;;;;9177492;19;20447;-70
2022/06/28 12:45:37;;;;;;;6.10;1.45;;;21.20;94.40;;;;;;9170069;19;20074;-71
2022/06/28 12:48:41;;;;;;;3.65;1.40;;;21.10;94.10;;;;;;9172872;19;20341;-70
2022/06/28 12:51:44;;;;;;;6.18;1.70;;;21.10;92.10;;;;;;9187078;19;20074;-70
2022/06/28 12:54:48;;;;;;;6.38;1.30;;;20.40;93.80;;;;;;9184451;19;20011;-70
2022/06/28 12:57:52;;;;;;;4.55;1.40;;;20.90;94.30;;;;;;9184741;19;20026;-71
2022/06/28 13:00:59;;;;;;;7.53;1.63;;;21.20;93.60;;;;;;9167976;19;20014;-70
2022/06/28 13:04:03;;;;;;;5.88;1.60;;;21.60;91.60;;;;;;9186404;19;20360;-71
2022/06/28 13:07:07;;;;;;;4.38;1.65;;;21.80;93.00;;;;;;9185454;19;20011;-70
2022/06/28 13:10:12;;;;;;;4.35;1.30;;;21.80;91.70;;;;;;9185510;19;20011;-70
2022/06/28 13:13:20;;;;;;;3.85;1.30;;;21.80;92.40;;;;;;9179997;19;20018;-70
2022/06/28 13:16:27;;;;;;;3.53;1.33;;;21.90;91.60;;;;;;9184083;19;20014;-70
2022/06/28 13:19:31;;;;;;;6.20;1.63;;;22.10;91.20;;;;;;9185180;19;20471;-71
2022/06/28 13:22:36;;;;;;;3.95;1.27;;;21.80;91.00;;;;;;9185612;19;20070;-70
2022/06/28 13:25:40;;;;;;;5.68;1.52;;;21.40;91.50;;;;;;9179687;19;20025;-71
2022/06/28 13:28:44;;;;;;;4.07;1.30;;;21.50;91.60;;;;;;9182760;19;20022;-69
2022/06/28 13:31:51;;;;;;;4.45;1.30;;;21.90;90.70;;;;;;9181438;19;20015;-68
2022/06/28 13:34:54;;;;;;;5.30;1.48;;;22.20;90.00;;;;;;9184585;19;20382;-68
2022/06/28 13:37:58;;;;;;;4.47;1.25;;;22.10;86.70;;;;;;9169247;19;20070;-68
2022/06/28 13:41:03;;;;;;;7.63;1.40;;;22.40;87.80;;;;;;9183017;19;20070;-68
2022/06/28 13:44:08;;;;;;;5.63;1.52;;;22.70;87.30;;;;;;9164183;19;20023;-70
2022/06/28 13:47:14;;;;;;;4.18;1.15;;;22.80;83.70;;;;;;9181970;19;20102;-68
2022/06/28 13:50:18;;;;;;;5.05;1.50;;;22.80;83.90;;;;;;9184515;19;20018;-68
2022/06/28 13:53:23;;;;;;;5.45;1.10;;;22.80;82.10;;;;;;9182555;19;20021;-68
2022/06/28 13:56:27;;;;;;;2.53;1.17;;;23.00;86.10;;;;;;9185305;19;20017;-68
2022/06/28 13:59:31;;;;;;;3.58;1.20;;;23.40;83.70;;;;;;9169679;19;20017;-68
2022/06/28 14:02:39;;;;;;;4.72;1.20;;;23.60;82.10;;;;;;9175504;19;20403;-67
2022/06/28 14:05:43;;;;;;;3.47;1.42;;;23.60;79.30;;;;;;9181694;19;20006;-67
2022/06/28 14:08:47;;;;;;;4.15;1.20;;;23.00;79.30;;;;;;9184109;19;20383;-67
2022/06/28 14:11:51;;;;;;;4.68;1.27;;;22.90;79.70;;;;;;9183222;19;20026;-67
2022/06/28 14:14:55;;;;;;;3.28;1.27;;;23.30;79.20;;;;;;9182065;19;20023;-67
2022/06/28 14:18:02;;;;;;;2.38;1.02;;;23.50;77.40;;;;;;9179822;19;20022;-67
2022/06/28 14:21:06;;;;;;;3.60;1.30;;;23.80;79.70;;;;;;9177261;19;20082;-67
2022/06/28 14:24:11;;;;;;;7.93;1.70;;;24.30;79.10;;;;;;9181268;19;20078;-67
2022/06/28 14:27:15;;;;;;;8.70;1.38;;;24.30;76.30;;;;;;9184102;19;20403;-67
2022/06/28 14:30:19;;;;;;;3.58;1.50;;;24.50;75.60;;;;;;9183274;19;20038;-67
2022/06/28 14:33:26;;;;;;;3.47;1.17;;;24.50;74.40;;;;;;9177961;19;20018;-67
2022/06/28 14:36:30;;;;;;;2.10;1.10;;;24.70;72.30;;;;;;9177389;19;20014;-67
2022/06/28 14:39:34;;;;;;;4.43;1.35;;;24.90;73.80;;;;;;9182413;19;20070;-67
2022/06/28 14:42:38;;;;;;;4.20;1.40;;;24.90;70.60;;;;;;9180876;19;20028;-67
2022/06/28 14:45:42;;;;;;;3.83;1.10;;;24.70;69.90;;;;;;9177704;19;20364;-67
2022/06/28 14:48:49;;;;;;;3.80;1.30;;;24.20;71.30;;;;;;9179078;19;20081;-67
2022/06/28 14:51:53;;;;;;;4.03;1.17;;;23.80;71.00;;;;;;9181414;19;20018;-68
2022/06/28 14:54:57;;;;;;;3.88;1.13;;;24.00;73.50;;;;;;9176681;19;20025;-67
2022/06/28 14:58:00;;;;;;;2.83;1.40;;;24.00;72.70;;;;;;9177349;19;20011;-67
2022/06/28 15:01:05;;;;;;;4.30;1.40;;;24.30;74.90;;;;;;9180194;19;20014;-67
2022/06/28 15:04:12;;;;;;;2.55;1.10;;;24.60;72.40;;;;;;9180004;19;20052;-70
2022/06/28 15:07:15;;;;;;;5.72;1.45;;;25.00;70.90;;;;;;9179224;19;20024;-69
2022/06/28 15:10:19;;;;;;;4.22;1.50;;;24.90;69.00;;;;;;9177693;19;20099;-69
2022/06/28 15:13:23;;;;;;;7.00;1.50;;;24.80;68.50;;;;;;9178470;19;20076;-70
2022/06/28 15:16:28;;;;;;;6.00;1.30;;;25.00;69.70;;;;;;9170378;19;20227;-70
2022/06/28 15:19:34;;;;;;;3.47;1.20;;;25.10;68.80;;;;;;9181659;19;20494;-70
2022/06/28 15:32:28;;;;;;;3.50;1.40;;;25.70;70.00;;;;;;9167735;19;20021;-69
2022/06/28 15:35:34;;;;;;;3.58;1.40;;;25.80;68.20;;;;;;9177968;19;20277;-70
2022/06/28 15:38:38;;;;;;;;;;;25.50;67.30;;;;;;9180179;19;20028;-70
2022/06/28 15:41:42;;;;;;;4.68;1.27;;;25.30;68.80;;;;;;9178461;19;19918;-70
2022/06/28 15:44:46;;;;;;;17.80;9.95;;;25.20;70.50;;;;;;9179744;19;20074;-69
2022/06/28 15:47:49;;;;;;;12.50;7.72;;;25.20;68.90;;;;;;9176012;19;20014;-69
2022/06/28 15:50:56;;;;;;;6.72;2.95;;;25.40;67.30;;;;;;9175883;19;20483;-69
2022/06/28 15:54:00;;;;;;;3.63;1.10;;;25.60;67.80;;;;;;9179375;19;20017;-69
2022/06/28 15:57:04;;;;;;;5.80;1.80;;;25.80;69.10;;;;;;9170117;19;20010;-70
2022/06/28 16:00:10;;;;;;;4.35;1.60;;;26.00;65.90;;;;;;9172151;19;20344;-72
2022/06/28 16:03:14;;;;;;;3.80;1.52;;;26.00;66.00;;;;;;9178188;19;20078;-72
2022/06/28 16:06:20;;;;;;;5.20;2.53;;;25.90;66.80;;;;;;9179262;19;20038;-72
2022/06/28 16:09:24;;;;;;;;;;;25.60;64.20;;;;;;9178084;19;20022;-75
2022/06/28 16:15:44;;;;;;;4.80;1.40;;;24.90;64.30;;;;;;9177265;19;20014;-70
2022/06/28 16:18:48;;;;;;;3.17;1.33;;;25.20;65.90;;;;;;9177075;19;20052;-70
2022/06/28 16:21:54;;;;;;;6.95;2.50;;;25.00;64.00;;;;;;9177996;19;20022;-71
2022/06/28 16:24:58;;;;;;;;;;;25.00;65.60;;;;;;9174760;19;20018;-69
2022/06/28 16:28:03;;;;;;;4.20;1.17;;;25.00;67.00;;;;;;9177243;19;19925;-69
2022/06/28 16:31:07;;;;;;;5.68;1.40;;;25.40;66.10;;;;;;9178019;19;20021;-69